createdAt,value
2022-10-06T00:00:02.138Z,1007.40
2022-10-06T00:01:02.145Z,1007.41
2022-10-06T00:02:02.123Z,1007.42
2022-10-06T00:03:02.183Z,1007.45
2022-10-06T00:04:02.110Z,1007.48
2022-10-06T00:05:02.076Z,1007.51
2022-10-06T00:06:02.065Z,1007.52
2022-10-06T00:07:02.079Z,1007.55
2022-10-06T00:08:02.053Z,1007.54
2022-10-06T00:09:02.044Z,1007.58
2022-10-06T00:10:02.041Z,1007.60
2022-10-06T00:11:02.005Z,1007.64
2022-10-06T00:12:02.021Z,1007.66
2022-10-06T00:13:02.001Z,1007.67
2022-10-06T00:14:01.984Z,1007.70
2022-10-06T00:15:01.971Z,1007.74
2022-10-06T00:16:02.029Z,1007.73
2022-10-06T00:17:01.938Z,1007.77
2022-10-06T00:18:01.965Z,1007.79
2022-10-06T00:19:01.968Z,1007.81
2022-10-06T00:20:01.957Z,1007.79
2022-10-06T00:21:01.899Z,1007.87
2022-10-06T00:22:01.897Z,1007.85
2022-10-06T00:23:01.877Z,1007.92
2022-10-06T00:24:01.899Z,1007.91
2022-10-06T00:25:01.859Z,1007.97
2022-10-06T00:26:01.857Z,1007.97
2022-10-06T00:27:01.841Z,1007.98
2022-10-06T00:28:01.876Z,1008.02
2022-10-06T00:29:01.981Z,1007.96
2022-10-06T00:30:01.807Z,1007.98
2022-10-06T00:31:01.835Z,1007.98
2022-10-06T00:32:01.795Z,1008.03
2022-10-06T00:33:01.764Z,1008.03
2022-10-06T00:34:01.786Z,1008.07
2022-10-06T00:35:01.786Z,1008.11
2022-10-06T00:36:01.756Z,1008.10
2022-10-06T00:37:01.719Z,1008.15
2022-10-06T00:38:01.720Z,1008.12
2022-10-06T00:39:01.717Z,1008.12
2022-10-06T00:40:01.710Z,1008.13
2022-10-06T00:41:01.701Z,1008.14
2022-10-06T00:42:01.682Z,1008.18
2022-10-06T00:43:01.669Z,1008.18
2022-10-06T00:44:01.677Z,1008.18
2022-10-06T00:45:01.635Z,1008.18
2022-10-06T00:46:01.729Z,1008.23
2022-10-06T00:47:01.617Z,1008.22
2022-10-06T00:48:01.617Z,1008.27
2022-10-06T00:49:01.617Z,1008.26
2022-10-06T00:50:01.613Z,1008.28
2022-10-06T00:51:01.623Z,1008.34
2022-10-06T00:52:01.599Z,1008.30
2022-10-06T00:53:01.559Z,1008.35
2022-10-06T00:54:01.569Z,1008.34
2022-10-06T00:55:01.543Z,1008.34
2022-10-06T00:56:01.531Z,1008.35
2022-10-06T00:57:01.539Z,1008.36
2022-10-06T00:58:01.513Z,1008.38
2022-10-06T00:59:01.498Z,1008.39
2022-10-06T01:00:01.502Z,1008.41
2022-10-06T01:01:01.468Z,1008.42
2022-10-06T01:02:01.493Z,1008.40
2022-10-06T01:03:01.522Z,1008.44
2022-10-06T01:04:01.454Z,1008.43
2022-10-06T01:05:01.422Z,1008.48
2022-10-06T01:06:01.416Z,1008.48
2022-10-06T01:07:01.425Z,1008.46
2022-10-06T01:08:01.444Z,1008.45
2022-10-06T01:09:01.422Z,1008.49
2022-10-06T01:10:01.401Z,1008.49
2022-10-06T01:11:01.363Z,1008.54
2022-10-06T01:12:01.367Z,1008.51
2022-10-06T01:13:01.361Z,1008.55
2022-10-06T01:14:01.350Z,1008.53
2022-10-06T01:15:01.330Z,1008.55
2022-10-06T01:16:01.375Z,1008.54
2022-10-06T01:17:01.310Z,1008.59
2022-10-06T01:18:01.308Z,1008.61
2022-10-06T01:19:01.308Z,1008.66
2022-10-06T01:20:01.295Z,1008.63
2022-10-06T01:21:01.277Z,1008.66
2022-10-06T01:22:01.246Z,1008.63
2022-10-06T01:23:01.248Z,1008.70
2022-10-06T01:24:01.264Z,1008.70
2022-10-06T01:25:01.225Z,1008.72
2022-10-06T01:26:01.227Z,1008.80
2022-10-06T01:27:01.239Z,1008.75
2022-10-06T01:28:01.243Z,1008.79
2022-10-06T01:29:01.169Z,1008.79
2022-10-06T01:30:01.172Z,1008.78
2022-10-06T01:31:01.229Z,1008.86
2022-10-06T01:32:01.147Z,1008.83
2022-10-06T01:33:01.164Z,1008.86
2022-10-06T01:34:01.136Z,1008.82
2022-10-06T01:35:01.117Z,1008.79
2022-10-06T01:36:01.117Z,1008.84
2022-10-06T01:37:01.096Z,1008.86
2022-10-06T01:38:01.076Z,1008.92
2022-10-06T01:39:01.097Z,1008.91
2022-10-06T01:40:01.057Z,1008.94
2022-10-06T01:41:01.050Z,1008.96
2022-10-06T01:42:01.044Z,1008.99
2022-10-06T01:43:01.029Z,1009.04
2022-10-06T01:44:01.042Z,1009.02
2022-10-06T01:45:00.999Z,1009.04
2022-10-06T01:46:01.060Z,1009.03
2022-10-06T01:47:00.995Z,1009.05
2022-10-06T01:48:00.986Z,1009.08
2022-10-06T01:49:00.980Z,1009.07
2022-10-06T01:50:00.955Z,1009.14
2022-10-06T01:51:00.941Z,1009.15
2022-10-06T01:52:00.940Z,1009.11
2022-10-06T01:53:00.907Z,1009.11
2022-10-06T01:54:00.966Z,1009.11
2022-10-06T01:55:00.898Z,1009.12
2022-10-06T01:56:00.894Z,1009.19
2022-10-06T01:57:00.883Z,1009.19
2022-10-06T01:58:00.868Z,1009.18
2022-10-06T01:59:00.856Z,1009.20
2022-10-06T02:00:00.876Z,1009.21
2022-10-06T02:01:00.831Z,1009.21
2022-10-06T02:02:00.871Z,1009.25
2022-10-06T02:03:00.815Z,1009.26
2022-10-06T02:04:00.851Z,1009.29
2022-10-06T02:05:00.802Z,1009.35
2022-10-06T02:06:00.838Z,1009.28
2022-10-06T02:07:00.766Z,1009.31
2022-10-06T02:08:00.772Z,1009.29
2022-10-06T02:09:00.751Z,1009.29
2022-10-06T02:10:00.758Z,1009.29
2022-10-06T02:11:00.729Z,1009.31
2022-10-06T02:12:00.724Z,1009.35
2022-10-06T02:13:00.689Z,1009.36
2022-10-06T02:14:00.695Z,1009.39
2022-10-06T02:15:00.711Z,1009.38
2022-10-06T02:16:00.780Z,1009.40
2022-10-06T02:17:00.684Z,1009.42
2022-10-06T02:18:00.661Z,1009.45
2022-10-06T02:19:00.638Z,1009.45
2022-10-06T02:20:00.639Z,1009.49
2022-10-06T02:21:00.609Z,1009.55
2022-10-06T02:22:00.623Z,1009.52
2022-10-06T02:23:00.603Z,1009.57
2022-10-06T02:24:00.583Z,1009.60
2022-10-06T02:25:00.574Z,1009.67
2022-10-06T02:26:00.568Z,1009.69
2022-10-06T02:27:00.581Z,1009.70
2022-10-06T02:28:00.628Z,1009.72
2022-10-06T02:29:00.523Z,1009.71
2022-10-06T02:30:00.526Z,1009.75
2022-10-06T02:31:00.548Z,1009.79
2022-10-06T02:32:00.508Z,1009.78
2022-10-06T02:33:00.506Z,1009.82
2022-10-06T02:34:00.486Z,1009.86
2022-10-06T02:35:00.510Z,1009.87
2022-10-06T02:36:00.463Z,1009.89
2022-10-06T02:37:00.461Z,1009.92
2022-10-06T02:38:00.458Z,1009.95
2022-10-06T02:39:00.429Z,1009.98
2022-10-06T02:40:00.454Z,1010.04
2022-10-06T02:41:00.403Z,1010.03
2022-10-06T02:42:00.394Z,1010.06
2022-10-06T02:43:00.399Z,1010.08
2022-10-06T02:44:00.379Z,1010.10
2022-10-06T02:45:00.353Z,1010.09
2022-10-06T02:46:00.357Z,1010.13
2022-10-06T02:47:00.338Z,1010.12
2022-10-06T02:48:00.346Z,1010.11
2022-10-06T02:49:00.314Z,1010.12
2022-10-06T02:50:00.322Z,1010.09
2022-10-06T02:51:00.294Z,1010.11
2022-10-06T02:52:00.298Z,1010.06
2022-10-06T02:53:00.294Z,1010.08
2022-10-06T02:54:00.265Z,1010.11
2022-10-06T02:55:00.267Z,1010.08
2022-10-06T02:56:00.253Z,1010.18
2022-10-06T02:57:00.229Z,1010.19
2022-10-06T02:58:00.225Z,1010.25
2022-10-06T02:59:00.212Z,1010.24
2022-10-06T03:00:00.216Z,1010.26
2022-10-06T03:01:00.195Z,1010.31
2022-10-06T03:02:00.353Z,1010.29
2022-10-06T03:03:00.216Z,1010.30
2022-10-06T03:04:00.151Z,1010.31
2022-10-06T03:05:00.158Z,1010.31
2022-10-06T03:06:00.148Z,1010.31
2022-10-06T03:07:00.117Z,1010.33
2022-10-06T03:08:00.112Z,1010.34
2022-10-06T03:09:00.108Z,1010.37
2022-10-06T03:10:00.145Z,1010.38
2022-10-06T03:11:00.130Z,1010.38
2022-10-06T03:12:00.151Z,1010.40
2022-10-06T03:13:00.038Z,1010.40
2022-10-06T03:14:00.046Z,1010.38
2022-10-06T03:15:00.032Z,1010.39
2022-10-06T03:16:00.101Z,1010.44
2022-10-06T03:17:00.005Z,1010.41
2022-10-06T03:18:00.013Z,1010.45
2022-10-06T03:18:59.985Z,1010.42
2022-10-06T03:19:59.984Z,1010.46
2022-10-06T03:20:59.979Z,1010.50
2022-10-06T03:21:59.959Z,1010.47
2022-10-06T03:22:59.948Z,1010.49
2022-10-06T03:23:59.947Z,1010.53
2022-10-06T03:24:59.928Z,1010.58
2022-10-06T03:25:59.964Z,1010.57
2022-10-06T03:26:59.897Z,1010.62
2022-10-06T03:27:59.940Z,1010.65
2022-10-06T03:28:59.876Z,1010.65
2022-10-06T03:29:59.903Z,1010.72
2022-10-06T03:30:59.887Z,1010.74
2022-10-06T03:31:59.866Z,1010.74
2022-10-06T03:32:59.835Z,1010.77
2022-10-06T03:33:59.839Z,1010.78
2022-10-06T03:34:59.830Z,1010.79
2022-10-06T03:35:59.820Z,1010.80
2022-10-06T03:36:59.798Z,1010.79
2022-10-06T03:37:59.792Z,1010.85
2022-10-06T03:38:59.774Z,1010.87
2022-10-06T03:39:59.771Z,1010.88
2022-10-06T03:40:59.747Z,1010.88
2022-10-06T03:41:59.764Z,1010.88
2022-10-06T03:42:59.732Z,1010.87
2022-10-06T03:43:59.742Z,1010.89
2022-10-06T03:44:59.709Z,1010.84
2022-10-06T03:45:59.709Z,1010.94
2022-10-06T03:46:59.788Z,1010.91
2022-10-06T03:47:59.676Z,1010.91
2022-10-06T03:48:59.665Z,1010.92
2022-10-06T03:49:59.667Z,1010.92
2022-10-06T03:50:59.641Z,1010.97
2022-10-06T03:51:59.651Z,1010.96
2022-10-06T03:52:59.625Z,1010.97
2022-10-06T03:53:59.602Z,1011.04
2022-10-06T03:54:59.594Z,1011.06
2022-10-06T03:55:59.598Z,1011.09
2022-10-06T03:56:59.598Z,1011.13
2022-10-06T03:57:59.565Z,1011.13
2022-10-06T03:58:59.550Z,1011.13
2022-10-06T03:59:59.581Z,1011.16
2022-10-06T04:00:59.557Z,1011.17
2022-10-06T04:01:59.549Z,1011.19
2022-10-06T04:02:59.531Z,1011.22
2022-10-06T04:03:59.581Z,1011.27
2022-10-06T04:04:59.488Z,1011.27
2022-10-06T04:05:59.486Z,1011.33
2022-10-06T04:06:59.491Z,1011.35
2022-10-06T04:07:59.494Z,1011.37
2022-10-06T04:08:59.490Z,1011.38
2022-10-06T04:09:59.438Z,1011.43
2022-10-06T04:10:59.435Z,1011.43
2022-10-06T04:11:59.422Z,1011.45
2022-10-06T04:12:59.481Z,1011.47
2022-10-06T04:13:59.410Z,1011.50
2022-10-06T04:15:00.299Z,1011.52
2022-10-06T04:15:59.392Z,1011.56
2022-10-06T04:16:59.377Z,1011.59
2022-10-06T04:17:59.347Z,1011.62
2022-10-06T04:18:59.370Z,1011.63
2022-10-06T04:19:59.338Z,1011.65
2022-10-06T04:20:59.346Z,1011.63
2022-10-06T04:21:59.312Z,1011.67
2022-10-06T04:22:59.315Z,1011.69
2022-10-06T04:23:59.328Z,1011.71
2022-10-06T04:24:59.295Z,1011.75
2022-10-06T04:25:59.265Z,1011.75
2022-10-06T04:27:00.018Z,1011.74
2022-10-06T04:27:59.275Z,1011.73
2022-10-06T04:28:59.235Z,1011.74
2022-10-06T04:29:59.240Z,1011.74
2022-10-06T04:30:59.221Z,1011.75
2022-10-06T04:31:59.254Z,1011.79
2022-10-06T04:32:59.203Z,1011.84
2022-10-06T04:33:59.186Z,1011.80
2022-10-06T04:34:59.190Z,1011.84
2022-10-06T04:35:59.175Z,1011.87
2022-10-06T04:36:59.155Z,1011.86
2022-10-06T04:37:59.128Z,1011.88
2022-10-06T04:38:59.133Z,1011.89
2022-10-06T04:39:59.112Z,1011.90
2022-10-06T04:40:59.157Z,1011.93
2022-10-06T04:41:59.089Z,1011.96
2022-10-06T04:42:59.083Z,1011.98
2022-10-06T04:43:59.079Z,1011.99
2022-10-06T04:44:59.057Z,1012.00
2022-10-06T04:45:59.142Z,1011.98
2022-10-06T04:46:59.124Z,1011.95
2022-10-06T04:47:59.069Z,1011.99
2022-10-06T04:48:59.046Z,1012.03
2022-10-06T04:49:59.011Z,1012.06
2022-10-06T04:50:59.000Z,1012.08
2022-10-06T04:51:58.999Z,1012.10
2022-10-06T04:52:59.088Z,1012.10
2022-10-06T04:53:58.969Z,1012.14
2022-10-06T04:54:58.960Z,1012.15
2022-10-06T04:55:58.945Z,1012.18
2022-10-06T04:56:58.988Z,1012.18
2022-10-06T04:57:58.943Z,1012.16
2022-10-06T04:58:58.912Z,1012.17
2022-10-06T05:00:05.010Z,1012.18
2022-10-06T05:00:58.981Z,1012.18
2022-10-06T05:01:58.930Z,1012.23
2022-10-06T05:02:58.937Z,1012.26
2022-10-06T05:03:58.852Z,1012.28
2022-10-06T05:04:58.856Z,1012.30
2022-10-06T05:05:58.847Z,1012.36
2022-10-06T05:06:58.831Z,1012.35
2022-10-06T05:07:58.836Z,1012.34
2022-10-06T05:08:58.954Z,1012.34
2022-10-06T05:09:58.922Z,1012.38
2022-10-06T05:10:58.835Z,1012.40
2022-10-06T05:11:58.813Z,1012.44
2022-10-06T05:12:58.813Z,1012.46
2022-10-06T05:13:58.829Z,1012.47
2022-10-06T05:14:58.746Z,1012.48
2022-10-06T05:15:58.774Z,1012.49
2022-10-06T05:16:59.657Z,1012.52
2022-10-06T05:17:58.763Z,1012.55
2022-10-06T05:18:58.650Z,1012.57
2022-10-06T05:19:58.712Z,1012.64
2022-10-06T05:21:01.093Z,1012.63
2022-10-06T05:21:58.618Z,1012.67
2022-10-06T05:22:58.620Z,1012.63
2022-10-06T05:23:58.606Z,1012.68
2022-10-06T05:24:58.631Z,1012.68
2022-10-06T05:25:58.583Z,1012.70
2022-10-06T05:27:01.760Z,1012.72
2022-10-06T05:27:58.573Z,1012.74
2022-10-06T05:28:58.557Z,1012.76
2022-10-06T05:29:58.533Z,1012.74
2022-10-06T05:30:58.529Z,1012.74
2022-10-06T05:31:58.537Z,1012.74
2022-10-06T05:32:58.576Z,1012.78
2022-10-06T05:33:58.499Z,1012.79
2022-10-06T05:34:58.489Z,1012.80
2022-10-06T05:35:58.461Z,1012.85
2022-10-06T05:36:58.474Z,1012.87
2022-10-06T05:37:58.434Z,1012.89
2022-10-06T05:38:58.439Z,1012.90
2022-10-06T05:39:58.438Z,1012.90
2022-10-06T05:40:58.419Z,1012.92
2022-10-06T05:41:58.407Z,1012.92
2022-10-06T05:42:58.391Z,1012.96
2022-10-06T05:43:58.396Z,1012.93
2022-10-06T05:44:58.401Z,1012.97
2022-10-06T05:45:58.413Z,1012.97
2022-10-06T05:46:58.471Z,1012.99
2022-10-06T05:47:58.330Z,1012.98
2022-10-06T05:48:58.340Z,1013.00
2022-10-06T05:49:58.328Z,1012.99
2022-10-06T05:50:58.309Z,1013.03
2022-10-06T05:51:58.298Z,1013.05
2022-10-06T05:52:58.300Z,1013.09
2022-10-06T05:53:58.333Z,1013.10
2022-10-06T05:54:58.266Z,1013.10
2022-10-06T05:55:58.248Z,1013.10
2022-10-06T05:56:58.246Z,1013.13
2022-10-06T05:57:58.273Z,1013.13
2022-10-06T05:58:58.295Z,1013.17
2022-10-06T05:59:58.209Z,1013.19
2022-10-06T06:00:58.220Z,1013.23
2022-10-06T06:01:58.225Z,1013.25
2022-10-06T06:02:58.249Z,1013.31
2022-10-06T06:03:58.167Z,1013.33
2022-10-06T06:04:58.159Z,1013.34
2022-10-06T06:05:58.144Z,1013.37
2022-10-06T06:06:58.172Z,1013.38
2022-10-06T06:07:58.128Z,1013.38
2022-10-06T06:08:58.125Z,1013.43
2022-10-06T06:09:58.122Z,1013.45
2022-10-06T06:10:58.136Z,1013.42
2022-10-06T06:11:58.079Z,1013.43
2022-10-06T06:12:58.097Z,1013.45
2022-10-06T06:13:58.070Z,1013.44
2022-10-06T06:14:58.109Z,1013.46
2022-10-06T06:15:58.095Z,1013.45
2022-10-06T06:16:58.145Z,1013.47
2022-10-06T06:17:58.035Z,1013.51
2022-10-06T06:18:57.997Z,1013.49
2022-10-06T06:19:57.990Z,1013.52
2022-10-06T06:20:58.004Z,1013.55
2022-10-06T06:21:57.977Z,1013.58
2022-10-06T06:22:58.003Z,1013.60
2022-10-06T06:23:57.961Z,1013.61
2022-10-06T06:24:57.946Z,1013.62
2022-10-06T06:26:02.062Z,1013.62
2022-10-06T06:26:57.947Z,1013.65
2022-10-06T06:27:58.037Z,1013.66
2022-10-06T06:28:57.898Z,1013.69
2022-10-06T06:29:57.877Z,1013.69
2022-10-06T06:30:57.934Z,1013.74
2022-10-06T06:31:57.858Z,1013.74
2022-10-06T06:32:57.998Z,1013.77
2022-10-06T06:33:57.925Z,1013.79
2022-10-06T06:34:57.879Z,1013.79
2022-10-06T06:35:57.838Z,1013.83
2022-10-06T06:37:01.197Z,1013.81
2022-10-06T06:37:57.800Z,1013.83
2022-10-06T06:38:57.876Z,1013.85
2022-10-06T06:39:57.880Z,1013.85
2022-10-06T06:40:57.777Z,1013.88
2022-10-06T06:41:57.768Z,1013.87
2022-10-06T06:42:57.764Z,1013.88
2022-10-06T06:43:57.738Z,1013.90
2022-10-06T06:44:57.764Z,1013.94
2022-10-06T06:45:57.760Z,1013.97
2022-10-06T06:46:57.715Z,1013.99
2022-10-06T06:47:57.696Z,1014.05
2022-10-06T06:48:57.698Z,1014.05
2022-10-06T06:49:57.692Z,1014.08
2022-10-06T06:50:57.670Z,1014.07
2022-10-06T06:51:57.644Z,1014.09
2022-10-06T06:52:57.685Z,1014.09
2022-10-06T06:53:57.623Z,1014.11
2022-10-06T06:54:57.653Z,1014.11
2022-10-06T06:55:57.605Z,1014.17
2022-10-06T06:56:57.642Z,1014.18
2022-10-06T06:57:57.598Z,1014.22
2022-10-06T06:58:57.580Z,1014.22
2022-10-06T06:59:57.558Z,1014.22
2022-10-06T07:00:57.604Z,1014.25
2022-10-06T07:01:57.664Z,1014.24
2022-10-06T07:02:57.557Z,1014.26
2022-10-06T07:03:58.828Z,1014.28
2022-10-06T07:04:57.517Z,1014.30
2022-10-06T07:05:57.504Z,1014.29
2022-10-06T07:06:57.521Z,1014.37
2022-10-06T07:07:57.469Z,1014.36
2022-10-06T07:08:57.475Z,1014.38
2022-10-06T07:09:57.463Z,1014.39
2022-10-06T07:10:57.458Z,1014.39
2022-10-06T07:11:57.478Z,1014.43
2022-10-06T07:12:57.455Z,1014.44
2022-10-06T07:13:57.422Z,1014.48
2022-10-06T07:14:57.427Z,1014.50
2022-10-06T07:15:57.435Z,1014.53
2022-10-06T07:16:57.544Z,1014.56
2022-10-06T07:17:57.376Z,1014.56
2022-10-06T07:18:57.446Z,1014.56
2022-10-06T07:19:57.366Z,1014.58
2022-10-06T07:20:57.334Z,1014.59
2022-10-06T07:21:57.329Z,1014.57
2022-10-06T07:22:57.356Z,1014.65
2022-10-06T07:23:57.318Z,1014.65
2022-10-06T07:24:57.315Z,1014.66
2022-10-06T07:25:57.322Z,1014.66
2022-10-06T07:26:57.311Z,1014.67
2022-10-06T07:27:57.306Z,1014.71
2022-10-06T07:28:57.270Z,1014.70
2022-10-06T07:29:57.475Z,1014.74
2022-10-06T07:30:57.305Z,1014.75
2022-10-06T07:31:57.223Z,1014.80
2022-10-06T07:32:57.241Z,1014.78
2022-10-06T07:33:57.231Z,1014.78
2022-10-06T07:34:57.360Z,1014.85
2022-10-06T07:35:57.206Z,1014.79
2022-10-06T07:36:57.178Z,1014.81
2022-10-06T07:37:57.154Z,1014.82
2022-10-06T07:38:57.176Z,1014.85
2022-10-06T07:39:57.156Z,1014.87
2022-10-06T07:41:57.159Z,1014.92
2022-10-06T07:42:57.131Z,1014.95
2022-10-06T07:43:57.098Z,1014.99
2022-10-06T07:44:57.087Z,1014.98
2022-10-06T07:45:57.117Z,1015.00
2022-10-06T07:46:57.079Z,1015.05
2022-10-06T07:47:57.051Z,1015.02
2022-10-06T07:48:57.078Z,1014.98
2022-10-06T07:49:57.044Z,1015.03
2022-10-06T07:50:57.046Z,1015.01
2022-10-06T07:51:57.008Z,1015.01
2022-10-06T07:52:57.063Z,1015.06
2022-10-06T07:53:56.977Z,1015.07
2022-10-06T07:54:57.098Z,1015.02
2022-10-06T07:55:56.976Z,1015.03
2022-10-06T07:56:56.959Z,1015.02
2022-10-06T07:57:56.950Z,1015.02
2022-10-06T07:58:56.933Z,1015.05
2022-10-06T08:00:01.948Z,1015.07
2022-10-06T08:00:57.003Z,1015.07
2022-10-06T08:01:57.027Z,1015.10
2022-10-06T08:02:57.103Z,1015.07
2022-10-06T08:03:56.892Z,1015.13
2022-10-06T08:04:57.021Z,1015.12
2022-10-06T08:05:56.855Z,1015.11
2022-10-06T08:06:56.860Z,1015.15
2022-10-06T08:07:56.846Z,1015.22
2022-10-06T08:08:56.893Z,1015.18
2022-10-06T08:09:56.824Z,1015.18
2022-10-06T08:10:56.850Z,1015.20
2022-10-06T08:11:56.813Z,1015.19
2022-10-06T08:12:56.777Z,1015.21
2022-10-06T08:13:56.775Z,1015.26
2022-10-06T08:14:57.121Z,1015.30
2022-10-06T08:15:56.820Z,1015.28
2022-10-06T08:16:56.761Z,1015.31
2022-10-06T08:17:56.725Z,1015.33
2022-10-06T08:18:56.729Z,1015.38
2022-10-06T08:19:56.697Z,1015.36
2022-10-06T08:20:56.737Z,1015.40
2022-10-06T08:21:59.869Z,1015.41
2022-10-06T08:22:56.685Z,1015.45
2022-10-06T08:23:56.668Z,1015.49
2022-10-06T08:25:05.826Z,1015.52
2022-10-06T08:25:56.639Z,1015.52
2022-10-06T08:26:56.646Z,1015.62
2022-10-06T08:27:56.732Z,1015.57
2022-10-06T08:28:56.612Z,1015.56
2022-10-06T08:29:56.603Z,1015.61
2022-10-06T08:30:56.609Z,1015.61
2022-10-06T08:31:56.618Z,1015.60
2022-10-06T08:32:56.575Z,1015.58
2022-10-06T08:33:56.571Z,1015.62
2022-10-06T08:34:57.319Z,1015.61
2022-10-06T08:35:56.550Z,1015.65
2022-10-06T08:37:18.607Z,1015.70
2022-10-06T08:37:56.553Z,1015.68
2022-10-06T08:38:56.491Z,1015.75
2022-10-06T08:39:56.489Z,1015.78
2022-10-06T08:40:56.825Z,1015.83
2022-10-06T08:41:56.486Z,1015.77
2022-10-06T08:42:56.504Z,1015.74
2022-10-06T08:43:56.445Z,1015.74
2022-10-06T08:44:56.887Z,1015.80
2022-10-06T08:45:56.417Z,1015.87
2022-10-06T08:46:56.409Z,1015.81
2022-10-06T08:47:56.399Z,1015.82
2022-10-06T08:48:56.416Z,1015.91
2022-10-06T08:49:56.825Z,1015.88
2022-10-06T08:50:56.374Z,1015.95
2022-10-06T08:51:56.360Z,1015.87
2022-10-06T08:52:56.339Z,1015.89
2022-10-06T08:53:56.363Z,1015.93
2022-10-06T08:54:56.316Z,1015.87
2022-10-06T08:55:56.319Z,1015.93
2022-10-06T08:56:56.307Z,1015.93
2022-10-06T08:57:56.316Z,1015.96
2022-10-06T08:58:56.342Z,1015.97
2022-10-06T08:59:56.580Z,1015.96
2022-10-06T09:00:56.299Z,1015.99
2022-10-06T09:01:56.340Z,1016.00
2022-10-06T09:02:56.276Z,1016.01
2022-10-06T09:03:56.281Z,1016.02
2022-10-06T09:04:56.251Z,1016.02
2022-10-06T09:05:56.215Z,1016.00
2022-10-06T09:06:56.203Z,1016.04
2022-10-06T09:07:56.211Z,1016.09
2022-10-06T09:08:56.205Z,1016.11
2022-10-06T09:09:56.492Z,1016.11
2022-10-06T09:10:56.153Z,1016.13
2022-10-06T09:11:56.153Z,1016.14
2022-10-06T09:12:56.142Z,1016.13
2022-10-06T09:13:56.157Z,1016.13
2022-10-06T09:14:56.141Z,1016.14
2022-10-06T09:15:56.142Z,1016.12
2022-10-06T09:16:56.088Z,1016.15
2022-10-06T09:17:56.224Z,1016.15
2022-10-06T09:19:08.230Z,1016.19
2022-10-06T09:19:56.376Z,1016.16
2022-10-06T09:20:56.094Z,1016.12
2022-10-06T09:21:56.052Z,1016.12
2022-10-06T09:22:56.092Z,1016.14
2022-10-06T09:23:56.028Z,1016.14
2022-10-06T09:24:56.018Z,1016.16
2022-10-06T09:25:56.018Z,1016.14
2022-10-06T09:26:56.001Z,1016.21
2022-10-06T09:27:56.107Z,1016.21
2022-10-06T09:28:55.957Z,1016.16
2022-10-06T09:29:56.282Z,1016.17
2022-10-06T09:30:56.009Z,1016.13
2022-10-06T09:31:55.953Z,1016.14
2022-10-06T09:32:55.912Z,1016.19
2022-10-06T09:33:55.906Z,1016.28
2022-10-06T09:34:55.930Z,1016.20
2022-10-06T09:35:55.900Z,1016.15
2022-10-06T09:37:00.902Z,1016.14
2022-10-06T09:37:55.904Z,1016.18
2022-10-06T09:38:55.863Z,1016.19
2022-10-06T09:39:56.221Z,1016.22
2022-10-06T09:40:56.126Z,1016.26
2022-10-06T09:41:55.826Z,1016.29
2022-10-06T09:42:55.808Z,1016.29
2022-10-06T09:43:55.804Z,1016.28
2022-10-06T09:44:55.783Z,1016.28
2022-10-06T09:45:55.851Z,1016.29
2022-10-06T09:46:55.773Z,1016.30
2022-10-06T09:47:55.760Z,1016.31
2022-10-06T09:48:55.760Z,1016.37
2022-10-06T09:49:55.924Z,1016.36
2022-10-06T09:50:56.073Z,1016.34
2022-10-06T09:51:55.724Z,1016.33
2022-10-06T09:52:55.700Z,1016.35
2022-10-06T09:53:55.731Z,1016.36
2022-10-06T09:54:55.711Z,1016.43
2022-10-06T09:55:55.705Z,1016.41
2022-10-06T09:56:55.674Z,1016.37
2022-10-06T09:57:55.657Z,1016.45
2022-10-06T09:58:55.748Z,1016.41
2022-10-06T09:59:55.895Z,1016.41
2022-10-06T10:00:55.671Z,1016.42
2022-10-06T10:01:55.701Z,1016.43
2022-10-06T10:02:55.645Z,1016.47
2022-10-06T10:04:15.940Z,1016.50
2022-10-06T10:04:55.949Z,1016.54
2022-10-06T10:05:55.685Z,1016.52
2022-10-06T10:06:55.584Z,1016.48
2022-10-06T10:07:55.565Z,1016.51
2022-10-06T10:08:55.651Z,1016.51
2022-10-06T10:09:55.778Z,1016.54
2022-10-06T10:10:55.557Z,1016.53
2022-10-06T10:11:55.523Z,1016.56
2022-10-06T10:12:55.509Z,1016.56
2022-10-06T10:13:55.482Z,1016.55
2022-10-06T10:14:55.521Z,1016.53
2022-10-06T10:15:55.497Z,1016.55
2022-10-06T10:16:55.435Z,1016.62
2022-10-06T10:17:55.453Z,1016.56
2022-10-06T10:18:55.460Z,1016.60
2022-10-06T10:19:55.871Z,1016.54
2022-10-06T10:20:55.404Z,1016.62
2022-10-06T10:21:55.394Z,1016.60
2022-10-06T10:22:55.408Z,1016.60
2022-10-06T10:23:55.380Z,1016.58
2022-10-06T10:24:55.354Z,1016.60
2022-10-06T10:25:55.361Z,1016.68
2022-10-06T10:26:55.342Z,1016.63
2022-10-06T10:27:55.621Z,1016.73
2022-10-06T10:28:55.319Z,1016.70
2022-10-06T10:29:55.665Z,1016.71
2022-10-06T10:30:55.349Z,1016.74
2022-10-06T10:31:55.457Z,1016.71
2022-10-06T10:32:55.334Z,1016.74
2022-10-06T10:34:12.126Z,1016.68
2022-10-06T10:34:55.631Z,1016.64
2022-10-06T10:35:55.263Z,1016.73
2022-10-06T10:36:56.222Z,1016.59
2022-10-06T10:37:55.241Z,1016.60
2022-10-06T10:38:55.234Z,1016.60
2022-10-06T10:39:55.205Z,1016.61
2022-10-06T10:40:55.187Z,1016.53
2022-10-06T10:41:55.193Z,1016.62
2022-10-06T10:42:55.211Z,1016.62
2022-10-06T10:43:55.179Z,1016.63
2022-10-06T10:44:55.528Z,1016.67
2022-10-06T10:45:55.144Z,1016.63
2022-10-06T10:46:55.200Z,1016.73
2022-10-06T10:47:55.119Z,1016.68
2022-10-06T10:48:55.106Z,1016.74
2022-10-06T10:49:55.115Z,1016.82
2022-10-06T10:50:55.097Z,1016.71
2022-10-06T10:51:55.109Z,1016.70
2022-10-06T10:52:55.183Z,1016.69
2022-10-06T10:53:55.060Z,1016.72
2022-10-06T10:54:55.282Z,1016.72
2022-10-06T10:55:55.137Z,1016.71
2022-10-06T10:56:55.150Z,1016.80
2022-10-06T10:57:55.014Z,1016.77
2022-10-06T10:58:55.001Z,1016.80
2022-10-06T10:59:54.995Z,1016.77
2022-10-06T11:00:55.052Z,1016.78
2022-10-06T11:01:55.023Z,1016.76
2022-10-06T11:02:55.016Z,1016.78
2022-10-06T11:03:54.947Z,1016.72
2022-10-06T11:04:56.105Z,1016.75
2022-10-06T11:05:54.959Z,1016.74
2022-10-06T11:06:54.925Z,1016.76
2022-10-06T11:07:54.904Z,1016.76
2022-10-06T11:08:54.963Z,1016.76
2022-10-06T11:09:54.893Z,1016.79
2022-10-06T11:10:54.902Z,1016.76
2022-10-06T11:11:54.860Z,1016.79
2022-10-06T11:12:54.860Z,1016.79
2022-10-06T11:13:54.852Z,1016.85
2022-10-06T11:14:54.871Z,1016.84
2022-10-06T11:15:54.871Z,1016.82
2022-10-06T11:16:54.874Z,1016.94
2022-10-06T11:17:54.838Z,1016.85
2022-10-06T11:18:54.796Z,1016.86
2022-10-06T11:19:54.849Z,1016.92
2022-10-06T11:20:55.751Z,1016.94
2022-10-06T11:21:54.775Z,1016.97
2022-10-06T11:22:54.746Z,1016.97
2022-10-06T11:23:55.078Z,1016.97
2022-10-06T11:24:54.768Z,1016.97
2022-10-06T11:25:54.777Z,1016.96
2022-10-06T11:26:54.789Z,1016.94
2022-10-06T11:27:54.737Z,1016.91
2022-10-06T11:28:54.703Z,1016.90
2022-10-06T11:29:54.702Z,1016.91
2022-10-06T11:30:54.688Z,1016.87
2022-10-06T11:31:54.795Z,1016.89
2022-10-06T11:32:54.650Z,1016.88
2022-10-06T11:33:54.655Z,1016.89
2022-10-06T11:34:55.619Z,1016.88
2022-10-06T11:35:54.856Z,1016.89
2022-10-06T11:36:54.647Z,1016.90
2022-10-06T11:37:54.614Z,1016.95
2022-10-06T11:38:54.614Z,1016.92
2022-10-06T11:39:54.586Z,1016.95
2022-10-06T11:40:54.569Z,1016.98
2022-10-06T11:41:59.638Z,1016.98
2022-10-06T11:42:54.541Z,1017.03
2022-10-06T11:43:56.037Z,1016.98
2022-10-06T11:44:58.238Z,1017.04
2022-10-06T11:45:54.592Z,1016.95
2022-10-06T11:46:54.663Z,1016.99
2022-10-06T11:47:54.526Z,1016.92
2022-10-06T11:48:54.651Z,1016.94
2022-10-06T11:49:54.498Z,1016.95
2022-10-06T11:50:54.500Z,1016.95
2022-10-06T11:51:58.360Z,1016.92
2022-10-06T11:52:54.578Z,1016.92
2022-10-06T11:53:54.453Z,1016.93
2022-10-06T11:54:54.425Z,1016.89
2022-10-06T11:55:54.415Z,1016.86
2022-10-06T11:56:54.404Z,1016.83
2022-10-06T11:57:54.600Z,1016.82
2022-10-06T11:58:54.549Z,1016.88
2022-10-06T11:59:54.381Z,1016.79
2022-10-06T12:00:54.394Z,1016.86
2022-10-06T12:01:55.434Z,1016.84
2022-10-06T12:02:54.503Z,1016.88
2022-10-06T12:03:54.340Z,1016.84
2022-10-06T12:04:54.393Z,1016.84
2022-10-06T12:05:56.770Z,1016.87